Terminal Aerodrome Forecast
Issued by NWS

Home | Current Version | Previous Version | Text Only | Print | Product List | Glossary On
Versions: 1 2 3 4 5 6 7 8 9 10 11 12 13 14 15
000
FTUS41 KGYX 011720
TAFHIE
TAF
KHIE 011720Z 0118/0218 VRB03KT P6SM OVC100
     FM012100 22004KT P6SM OVC050
     FM012300 VRB03KT P6SM -SN OVC035
     FM020200 VRB03KT 2SM -SN BR OVC025
     FM020500 VRB03KT 5SM BR OVC025
     FM020700 VRB03KT P6SM BKN035
     FM021400 28010G21KT P6SM SCT035=

USA.gov is the U.S. government's official web portal to all federal, state and local government web resources and services.